Huvudsida
METAR-TAF:

METAR-TAF

Flygplatser :

Amman Civil Airport

Amman, Jordanien

latitud: 31-59N, longitud: 035-59E, höjd: 767 m

Aktuellt väderrapport

Denna rapport gjordes för 29 minuter sedan, klockan 10:00 UTC
Vind 14 kt från väst
Temperatur 26°C
Fuktighet 42%
Tryck 1013 hPa
Sikt: 6000 m
Spridda moln på en höjd av 2500 ft

METAR: OJAM 151000Z 27014KT 6000 SCT025 26/12 Q1013 NOSIG

Tid: 13:29 (10:29 UTC)

Väderprognos

Denna rapport gjordes för 5 timmar och 38 minuter sedan, klockan 04:51 UTC
Prognos gäller från 15 kl. 06 UTC till 16 kl. 12 UTC
Vind 2 kt varierande vindriktning
Sikt: 3000 m
torrdis
Blir
från 15 kl. 06 UTC till 15 kl. 08 UTC
Vind 10 kt från väst
Sikt: 5000 m
Spridda moln på en höjd av 3000 ft
Sannolikhet 30% :
Temporärt
från 16 kl. 02 UTC till 16 kl. 06 UTC
Sikt: 3000 m
fuktdis

TAF: OJAM 150451Z 1506/1612 VRB02KT 3000 HZ NSC BECMG 1506/1508 27010KT 5000 SCT030 PROB30 TEMPO 1602/1606 3000 BR

Aktuella väderrapporter och prognoser från 4000 flygplatser (METAR- och TAF-rapporter).

De tillgängliga stationerna syns som gula och röda prickar på kartan.

För musen över prickarna för att se namnen på stationerna.

Klicka sedan för att få väderrapporter och prognoser.

För att ändra kartan: Klicka på de gröna knapparna med ett svart kors på för att zooma in; den gröna knappen med ett streck på för att zooma ut; eller på de gröna pilarna för angränsande kartor.


METAR-TAF: